Time;durP1;ratioP1;P1;durP2;ratioP2;P2;SDS_P1;SDS_P2;PMS_P1;PMS_P2;Temp;Humidity;BMP_temperature;BMP_pressure;BME280_temperature;BME280_humidity;BME280_pressure;Samples;Min_cycle;Max_cycle;Signal;HPM_P1;HPM_P2
2023/03/16 00:01:05;;;;;;;;;;;;;;;;;;5059406;28;19924;-75
2023/03/16 00:03:31;;;;;;;;;;;;;;;;;;5042805;28;19917;-74
2023/03/16 00:05:56;;;;;;;;;;;;;;;;;;5059340;28;19913;-75
2023/03/16 00:08:21;;;;;;;;;;;;;;;;;;5042102;28;19912;-74
2023/03/16 00:10:46;;;;;;;;;;;;;;;;;;5059838;28;19956;-75
2023/03/16 00:13:11;;;;;;;;;;;;;;;;;;5064657;28;19917;-75
2023/03/16 00:15:36;;;;;;;;;;;;;;;;;;5045814;28;20302;-75
2023/03/16 00:18:02;;;;;;;;;;;;;;;;;;5038088;28;19921;-75
2023/03/16 00:20:27;;;;;;;;;;;;;;;;;;5061581;28;20000;-75
2023/03/16 00:22:52;;;;;;;;;;;;;;;;;;5044276;28;19916;-75
2023/03/16 00:25:18;;;;;;;;;;;;;;;;;;5055316;28;19932;-75
2023/03/16 00:27:43;;;;;;;;;;;;;;;;;;5052258;28;19920;-75
2023/03/16 00:30:08;;;;;;;;;;;;;;;;;;5044560;28;19913;-74
2023/03/16 00:32:36;;;;;;;;;;;;;;;;;;5055502;28;20280;-75
2023/03/16 00:35:01;;;;;;;;;;;;;;;;;;5055014;28;19913;-75
2023/03/16 00:37:26;;;;;;;;;;;;;;;;;;5055700;28;20369;-75
2023/03/16 00:39:54;;;;;;;;;;;;;;;;;;5060889;28;19952;-75
2023/03/16 00:42:20;;;;;;;;;;;;;;;;;;5056279;28;19913;-75
2023/03/16 00:44:45;;;;;;;;;;;;;;;;;;5056049;28;20407;-75
2023/03/16 00:47:13;;;;;;;;;;;;;;;;;;5047754;28;19961;-75
2023/03/16 00:49:38;;;;;;;;;;;;;;;;;;5059400;28;20011;-75
2023/03/16 00:52:03;;;;;;;;;;;;;;;;;;5058855;28;20382;-75
2023/03/16 00:54:31;;;;;;;;;;;;;;;;;;5050503;28;19916;-75
2023/03/16 00:56:56;;;;;;;;;;;;;;;;;;5061217;28;19917;-75
2023/03/16 00:59:21;;;;;;;;;;;;;;;;;;5062466;28;19925;-75
2023/03/16 01:01:46;;;;;;;;;;;;;;;;;;5040422;28;19925;-75
2023/03/16 01:04:12;;;;;;;;;;;;;;;;;;5035017;28;19920;-74
2023/03/16 01:06:37;;;;;;;;;;;;;;;;;;5036921;28;19921;-74
2023/03/16 01:09:04;;;;;;;;;;;;;;;;;;5037490;28;20015;-74
2023/03/16 01:11:32;;;;;;;;;;;;;;;;;;5040292;28;19932;-74
2023/03/16 01:13:57;;;;;;;;;;;;;;;;;;5039757;28;19913;-74
2023/03/16 01:16:22;;;;;;;;;;;;;;;;;;5034510;28;19923;-74
2023/03/16 01:18:48;;;;;;;;;;;;;;;;;;5039824;28;19923;-74
2023/03/16 01:21:13;;;;;;;;;;;;;;;;;;5042002;28;20003;-74
2023/03/16 01:23:38;;;;;;;;;;;;;;;;;;5054845;28;19952;-74
2023/03/16 01:26:03;;;;;;;;;;;;;;;;;;5049069;28;19913;-74
2023/03/16 01:28:29;;;;;;;;;;;;;;;;;;5040258;28;19920;-74
2023/03/16 01:30:57;;;;;;;;;;;;;;;;;;5042727;28;19921;-74
2023/03/16 01:33:22;;;;;;;;;;;;;;;;;;5034321;28;19918;-74
2023/03/16 01:35:47;;;;;;;;;;;;;;;;;;5041013;28;19924;-74
2023/03/16 01:38:12;;;;;;;;;;;;;;;;;;5054483;28;19917;-74
2023/03/16 01:40:37;;;;;;;;;;;;;;;;;;5038697;28;20269;-74
2023/03/16 01:43:03;;;;;;;;;;;;;;;;;;5041864;28;19913;-74
2023/03/16 01:45:28;;;;;;;;;;;;;;;;;;5038834;28;19917;-74
2023/03/16 01:47:53;;;;;;;;;;;;;;;;;;5038371;28;19921;-74
2023/03/16 01:50:18;;;;;;;;;;;;;;;;;;5039502;28;19932;-76
2023/03/16 01:52:43;;;;;;;;;;;;;;;;;;5042933;28;19912;-74
2023/03/16 01:55:09;;;;;;;;;;;;;;;;;;5041702;28;19990;-74
2023/03/16 01:57:35;;;;;;;;;;;;;;;;;;5039904;28;20269;-74
2023/03/16 02:00:17;;;;;;;;;;;;;;;;;;5039253;28;19962;-75
2023/03/16 02:02:43;;;;;;;;;;;;;;;;;;5060592;28;20003;-75
2023/03/16 02:05:08;;;;;;;;;;;;;;;;;;5054965;28;20003;-75
2023/03/16 02:07:33;;;;;;;;;;;;;;;;;;5043844;28;19944;-74
2023/03/16 02:09:58;;;;;;;;;;;;;;;;;;5059780;28;19948;-74
2023/03/16 02:12:23;;;;;;;;;;;;;;;;;;5057086;28;19917;-75
2023/03/16 02:14:48;;;;;;;;;;;;;;;;;;5059829;28;19920;-75
2023/03/16 02:17:14;;;;;;;;;;;;;;;;;;5055114;28;19999;-74
2023/03/16 02:19:39;;;;;;;;;;;;;;;;;;5061208;28;19986;-74
2023/03/16 02:22:05;;;;;;;;;;;;;;;;;;5059614;28;19919;-75
2023/03/16 02:24:30;;;;;;;;;;;;;;;;;;5055070;28;19912;-75
2023/03/16 02:26:55;;;;;;;;;;;;;;;;;;5063137;28;19920;-75
2023/03/16 02:29:20;;;;;;;;;;;;;;;;;;5056971;28;19943;-76
2023/03/16 02:31:46;;;;;;;;;;;;;;;;;;5056527;28;19917;-76
2023/03/16 02:34:11;;;;;;;;;;;;;;;;;;5060376;28;19965;-74
2023/03/16 02:36:36;;;;;;;;;;;;;;;;;;5058609;28;20323;-75
2023/03/16 02:39:02;;;;;;;;;;;;;;;;;;5058303;28;19924;-74
2023/03/16 02:41:27;;;;;;;;;;;;;;;;;;5059232;28;19912;-75
2023/03/16 02:43:52;;;;;;;;;;;;;;;;;;5060993;28;20003;-75
2023/03/16 02:46:17;;;;;;;;;;;;;;;;;;5057414;28;19984;-75
2023/03/16 02:48:42;;;;;;;;;;;;;;;;;;5058211;28;19919;-75
2023/03/16 02:51:07;;;;;;;;;;;;;;;;;;5059151;28;20412;-75
2023/03/16 02:53:32;;;;;;;;;;;;;;;;;;5059370;28;20289;-75
2023/03/16 02:55:58;;;;;;;;;;;;;;;;;;5055725;28;20007;-75
2023/03/16 02:58:23;;;;;;;;;;;;;;;;;;5061195;28;19948;-75
2023/03/16 03:00:48;;;;;;;;;;;;;;;;;;5057113;28;19924;-75
2023/03/16 03:03:13;;;;;;;;;;;;;;;;;;5058502;28;19912;-75
2023/03/16 03:05:38;;;;;;;;;;;;;;;;;;5055775;28;20099;-74
2023/03/16 03:08:03;;;;;;;;;;;;;;;;;;5061222;28;20388;-76
2023/03/16 03:10:28;;;;;;;;;;;;;;;;;;5059202;28;19975;-75
2023/03/16 03:12:53;;;;;;;;;;;;;;;;;;5044733;28;19923;-75
2023/03/16 03:15:19;;;;;;;;;;;;;;;;;;5050587;28;19967;-75
2023/03/16 03:17:44;;;;;;;;;;;;;;;;;;5057590;28;19920;-75
2023/03/16 03:20:18;;;;;;;;;;;;;;;;;;5054742;28;19952;-74
2023/03/16 03:22:46;;;;;;;;;;;;;;;;;;5049518;28;19917;-75
2023/03/16 03:25:12;;;;;;;;;;;;;;;;;;5055645;28;19916;-75
2023/03/16 03:27:38;;;;;;;;;;;;;;;;;;5056483;28;20343;-75
2023/03/16 03:30:03;;;;;;;;;;;;;;;;;;5059469;28;19948;-70
2023/03/16 03:32:28;;;;;;;;;;;;;;;;;;5057396;28;20372;-73
2023/03/16 03:34:53;;;;;;;;;;;;;;;;;;5056390;28;19952;-69
2023/03/16 03:37:18;;;;;;;;;;;;;;;;;;5058237;28;19909;-69
2023/03/16 03:39:44;;;;;;;;;;;;;;;;;;5058077;28;19916;-69
2023/03/16 03:42:10;;;;;;;;;;;;;;;;;;5056238;28;20280;-69
2023/03/16 03:44:35;;;;;;;;;;;;;;;;;;5038272;28;19919;-69
2023/03/16 03:47:00;;;;;;;;;;;;;;;;;;5044288;28;19913;-69
2023/03/16 03:49:25;;;;;;;;;;;;;;;;;;5059443;28;19921;-69
2023/03/16 03:51:50;;;;;;;;;;;;;;;;;;5057421;28;19920;-69
2023/03/16 03:54:16;;;;;;;;;;;;;;;;;;5055524;28;19947;-69
2023/03/16 03:56:41;;;;;;;;;;;;;;;;;;5054788;28;19923;-69
2023/03/16 03:59:06;;;;;;;;;;;;;;;;;;5060016;28;20253;-69
2023/03/16 04:01:31;;;;;;;;;;;;;;;;;;5056334;28;19921;-69
2023/03/16 04:03:56;;;;;;;;;;;;;;;;;;5058203;28;19916;-70
2023/03/16 04:06:23;;;;;;;;;;;;;;;;;;5054794;28;19952;-70
2023/03/16 04:08:48;;;;;;;;;;;;;;;;;;5061648;28;19952;-70
2023/03/16 04:11:13;;;;;;;;;;;;;;;;;;5056039;28;19975;-69
2023/03/16 04:13:38;;;;;;;;;;;;;;;;;;5058857;28;20392;-70
2023/03/16 04:16:05;;;;;;;;;;;;;;;;;;5060397;28;19913;-70
2023/03/16 04:18:37;;;;;;;;;;;;;;;;;;5058119;28;19916;-69
2023/03/16 04:21:02;;;;;;;;;;;;;;;;;;5058814;28;19912;-69
2023/03/16 04:23:27;;;;;;;;;;;;;;;;;;5059962;28;20254;-70
2023/03/16 04:25:53;;;;;;;;;;;;;;;;;;5043413;28;19920;-69
2023/03/16 04:28:18;;;;;;;;;;;;;;;;;;5049492;28;19916;-69
2023/03/16 04:30:43;;;;;;;;;;;;;;;;;;5052659;28;19913;-70
2023/03/16 04:33:09;;;;;;;;;;;;;;;;;;5056305;28;20065;-70
2023/03/16 04:35:34;;;;;;;;;;;;;;;;;;5055578;28;20022;-70
2023/03/16 04:38:01;;;;;;;;;;;;;;;;;;5045653;28;19913;-70
2023/03/16 04:40:26;;;;;;;;;;;;;;;;;;5055228;28;19917;-70
2023/03/16 04:42:51;;;;;;;;;;;;;;;;;;5058556;28;19921;-70
2023/03/16 04:45:17;;;;;;;;;;;;;;;;;;5057024;28;20305;-70
2023/03/16 04:47:42;;;;;;;;;;;;;;;;;;5041390;28;19921;-69
2023/03/16 04:50:07;;;;;;;;;;;;;;;;;;5057575;28;19928;-69
2023/03/16 04:52:32;;;;;;;;;;;;;;;;;;5054849;28;19913;-69
2023/03/16 04:54:57;;;;;;;;;;;;;;;;;;5055685;28;20277;-69
2023/03/16 04:57:22;;;;;;;;;;;;;;;;;;5058668;28;19916;-70
2023/03/16 04:59:47;;;;;;;;;;;;;;;;;;5056869;28;19916;-69
2023/03/16 05:02:13;;;;;;;;;;;;;;;;;;5058937;28;19921;-69
2023/03/16 05:04:39;;;;;;;;;;;;;;;;;;5056736;28;20003;-69
2023/03/16 05:07:04;;;;;;;;;;;;;;;;;;5054382;28;19909;-69
2023/03/16 05:09:29;;;;;;;;;;;;;;;;;;5053197;28;19917;-69
2023/03/16 05:11:55;;;;;;;;;;;;;;;;;;5051699;28;19977;-71
2023/03/16 05:14:20;;;;;;;;;;;;;;;;;;5057464;28;20042;-70
2023/03/16 05:16:45;;;;;;;;;;;;;;;;;;5041686;28;19924;-71
2023/03/16 05:19:11;;;;;;;;;;;;;;;;;;5058227;28;20015;-70
2023/03/16 05:21:37;;;;;;;;;;;;;;;;;;5051703;28;19923;-70
2023/03/16 05:24:02;;;;;;;;;;;;;;;;;;5057558;28;20288;-70
2023/03/16 05:26:27;;;;;;;;;;;;;;;;;;5044221;28;19940;-70
2023/03/16 05:28:53;;;;;;;;;;;;;;;;;;5062647;28;19992;-70
2023/03/16 05:31:18;;;;;;;;;;;;;;;;;;5058733;28;19960;-70
2023/03/16 05:33:43;;;;;;;;;;;;;;;;;;5060853;28;19909;-70
2023/03/16 05:36:08;;;;;;;;;;;;;;;;;;5053482;28;19913;-70
2023/03/16 05:38:35;;;;;;;;;;;;;;;;;;5058853;28;19917;-70
2023/03/16 05:41:03;;;;;;;;;;;;;;;;;;5056507;28;20003;-70
2023/03/16 05:43:28;;;;;;;;;;;;;;;;;;5058209;28;20364;-70
2023/03/16 05:45:53;;;;;;;;;;;;;;;;;;5057976;28;19920;-71
2023/03/16 05:48:20;;;;;;;;;;;;;;;;;;5055881;28;19920;-70
2023/03/16 05:50:45;;;;;;;;;;;;;;;;;;5058696;28;19913;-70
2023/03/16 05:53:10;;;;;;;;;;;;;;;;;;5045716;28;20011;-70
2023/03/16 05:55:35;;;;;;;;;;;;;;;;;;5060706;28;20070;-70
2023/03/16 05:58:00;;;;;;;;;;;;;;;;;;5064756;28;19908;-70
2023/03/16 06:00:26;;;;;;;;;;;;;;;;;;5043747;28;19920;-70
2023/03/16 06:02:51;;;;;;;;;;;;;;;;;;5059508;28;19925;-70
2023/03/16 06:05:16;;;;;;;;;;;;;;;;;;5041173;28;20567;-69
2023/03/16 06:07:41;;;;;;;;;;;;;;;;;;5052264;28;20318;-70
2023/03/16 06:10:06;;;;;;;;;;;;;;;;;;5061020;28;19912;-70
2023/03/16 06:12:33;;;;;;;;;;;;;;;;;;5057231;28;19912;-70
2023/03/16 06:14:58;;;;;;;;;;;;;;;;;;5064219;28;20356;-70
2023/03/16 06:17:23;;;;;;;;;;;;;;;;;;5055545;28;19924;-70
2023/03/16 06:19:48;;;;;;;;;;;;;;;;;;5063552;28;19916;-69
2023/03/16 06:22:13;;;;;;;;;;;;;;;;;;5055250;28;19912;-70
2023/03/16 06:24:39;;;;;;;;;;;;;;;;;;5059404;28;19917;-70
2023/03/16 06:27:04;;;;;;;;;;;;;;;;;;5058486;28;20365;-70
2023/03/16 06:29:29;;;;;;;;;;;;;;;;;;5061728;28;19920;-70
2023/03/16 06:31:55;;;;;;;;;;;;;;;;;;5041327;28;20019;-70
2023/03/16 06:34:21;;;;;;;;;;;;;;;;;;5059725;28;19912;-70
2023/03/16 06:36:46;;;;;;;;;;;;;;;;;;5057050;28;19939;-70
2023/03/16 06:39:13;;;;;;;;;;;;;;;;;;5054956;28;19917;-70
2023/03/16 06:41:38;;;;;;;;;;;;;;;;;;5049546;28;20384;-70
2023/03/16 06:44:04;;;;;;;;;;;;;;;;;;5045758;28;19948;-71
2023/03/16 06:46:31;;;;;;;;;;;;;;;;;;5058809;28;19920;-70
2023/03/16 06:48:57;;;;;;;;;;;;;;;;;;5058295;28;19916;-69
2023/03/16 06:51:22;;;;;;;;;;;;;;;;;;5057885;28;19922;-69
2023/03/16 06:53:47;;;;;;;;;;;;;;;;;;5060691;28;20394;-71
2023/03/16 06:56:12;;;;;;;;;;;;;;;;;;5059054;28;20399;-71
2023/03/16 06:58:37;;;;;;;;;;;;;;;;;;5060042;28;19916;-70
2023/03/16 07:01:02;;;;;;;;;;;;;;;;;;5039359;28;19917;-70
2023/03/16 07:03:27;;;;;;;;;;;;;;;;;;5056401;28;19917;-70
2023/03/16 07:05:52;;;;;;;;;;;;;;;;;;5056935;28;19952;-71
2023/03/16 07:08:18;;;;;;;;;;;;;;;;;;5042540;28;20390;-69
2023/03/16 07:10:43;;;;;;;;;;;;;;;;;;5060248;28;20301;-69
2023/03/16 07:13:08;;;;;;;;;;;;;;;;;;5052883;28;20391;-69
2023/03/16 07:15:33;;;;;;;;;;;;;;;;;;5056336;28;20176;-70
2023/03/16 07:17:58;;;;;;;;;;;;;;;;;;5052872;28;19920;-69
2023/03/16 07:20:25;;;;;;;;;;;;;;;;;;5053649;28;19917;-69
2023/03/16 07:22:51;;;;;;;;;;;;;;;;;;5057625;28;19919;-68
2023/03/16 07:25:16;;;;;;;;;;;;;;;;;;5051308;28;19917;-68
2023/03/16 07:27:42;;;;;;;;;;;;;;;;;;5054919;28;19909;-71
2023/03/16 07:30:10;;;;;;;;;;;;;;;;;;5053262;28;19921;-70
2023/03/16 07:32:35;;;;;;;;;;;;;;;;;;5055412;28;20520;-69
2023/03/16 07:35:01;;;;;;;;;;;;;;;;;;5047938;28;20496;-70
2023/03/16 07:37:26;;;;;;;;;;;;;;;;;;5059106;28;19919;-69
2023/03/16 07:39:51;;;;;;;;;;;;;;;;;;5043933;28;19975;-69
2023/03/16 07:42:16;;;;;;;;;;;;;;;;;;5040542;28;19920;-70
2023/03/16 07:44:41;;;;;;;;;;;;;;;;;;5054455;28;19919;-70
2023/03/16 07:47:06;;;;;;;;;;;;;;;;;;5061642;28;19912;-70
2023/03/16 07:49:31;;;;;;;;;;;;;;;;;;5060325;28;19912;-70
2023/03/16 07:51:56;;;;;;;;;;;;;;;;;;5044325;28;19923;-70
2023/03/16 07:54:23;;;;;;;;;;;;;;;;;;5056117;28;20011;-70
2023/03/16 07:56:48;;;;;;;;;;;;;;;;;;5056295;28;19973;-70
2023/03/16 07:59:13;;;;;;;;;;;;;;;;;;5060217;28;19920;-70
2023/03/16 08:01:38;;;;;;;;;;;;;;;;;;5057058;28;19982;-71
2023/03/16 08:04:03;;;;;;;;;;;;;;;;;;5063473;28;19973;-70
2023/03/16 08:06:28;;;;;;;;;;;;;;;;;;5059291;28;19909;-70
2023/03/16 08:08:53;;;;;;;;;;;;;;;;;;5055274;28;20078;-71
2023/03/16 08:11:22;;;;;;;;;;;;;;;;;;5064163;28;20535;-70
2023/03/16 08:13:49;;;;;;;;;;;;;;;;;;5048490;28;19920;-70
2023/03/16 08:16:15;;;;;;;;;;;;;;;;;;5057597;28;20395;-70
2023/03/16 08:18:41;;;;;;;;;;;;;;;;;;5054413;28;19916;-70
2023/03/16 08:21:06;;;;;;;;;;;;;;;;;;5040770;28;19912;-70
2023/03/16 08:23:32;;;;;;;;;;;;;;;;;;5058459;28;19920;-71
2023/03/16 08:25:57;;;;;;;;;;;;;;;;;;5056442;28;19916;-70
2023/03/16 08:28:24;;;;;;;;;;;;;;;;;;5054874;28;19913;-70
2023/03/16 08:30:49;;;;;;;;;;;;;;;;;;5054038;28;20388;-70
2023/03/16 08:33:16;;;;;;;;;;;;;;;;;;5056916;28;19916;-70
2023/03/16 08:35:43;;;;;;;;;;;;;;;;;;5046161;28;19909;-71
2023/03/16 08:38:08;;;;;;;;;;;;;;;;;;5053923;28;19916;-70
2023/03/16 08:40:33;;;;;;;;;;;;;;;;;;5048032;28;19936;-69
2023/03/16 08:42:59;;;;;;;;;;;;;;;;;;5051692;28;19920;-71
2023/03/16 08:45:24;;;;;;;;;;;;;;;;;;5050690;28;20012;-71
2023/03/16 08:47:49;;;;;;;;;;;;;;;;;;5053051;28;20312;-71
2023/03/16 08:50:15;;;;;;;;;;;;;;;;;;5037704;28;19919;-70
2023/03/16 08:52:40;;;;;;;;;;;;;;;;;;5054157;28;20317;-71
2023/03/16 08:55:06;;;;;;;;;;;;;;;;;;5055393;28;19912;-70
2023/03/16 08:57:32;;;;;;;;;;;;;;;;;;5043321;28;19919;-70
2023/03/16 08:59:57;;;;;;;;;;;;;;;;;;5041366;28;19970;-70
2023/03/16 09:02:23;;;;;;;;;;;;;;;;;;5059189;28;19921;-70
2023/03/16 09:04:48;;;;;;;;;;;;;;;;;;5043836;28;19958;-70
2023/03/16 09:07:13;;;;;;;;;;;;;;;;;;5057992;28;19919;-70
2023/03/16 09:09:39;;;;;;;;;;;;;;;;;;5058097;28;20007;-70
2023/03/16 09:12:04;;;;;;;;;;;;;;;;;;5056203;28;19946;-70
2023/03/16 09:14:30;;;;;;;;;;;;;;;;;;5059650;28;20352;-70
2023/03/16 09:16:55;;;;;;;;;;;;;;;;;;5062219;28;19916;-70
2023/03/16 09:19:21;;;;;;;;;;;;;;;;;;5061127;28;20004;-71
2023/03/16 09:21:46;;;;;;;;;;;;;;;;;;5057621;28;20003;-70
2023/03/16 09:24:13;;;;;;;;;;;;;;;;;;5059714;28;20353;-70
2023/03/16 09:26:38;;;;;;;;;;;;;;;;;;5055495;28;19964;-70
2023/03/16 09:29:05;;;;;;;;;;;;;;;;;;5044537;28;19913;-70
2023/03/16 09:31:30;;;;;;;;;;;;;;;;;;5057226;28;19920;-70
2023/03/16 09:33:56;;;;;;;;;;;;;;;;;;5058495;28;20383;-71
2023/03/16 09:36:21;;;;;;;;;;;;;;;;;;5055850;28;19913;-70
2023/03/16 09:38:47;;;;;;;;;;;;;;;;;;5059042;28;19947;-71
2023/03/16 09:41:12;;;;;;;;;;;;;;;;;;5060242;28;20445;-70
2023/03/16 09:43:37;;;;;;;;;;;;;;;;;;5054325;28;19920;-71
2023/03/16 09:46:04;;;;;;;;;;;;;;;;;;5060599;28;20003;-71
2023/03/16 09:48:29;;;;;;;;;;;;;;;;;;5054156;28;19916;-70
2023/03/16 09:50:54;;;;;;;;;;;;;;;;;;5051648;28;20470;-70
2023/03/16 09:53:19;;;;;;;;;;;;;;;;;;5051080;28;19952;-70
2023/03/16 09:55:45;;;;;;;;;;;;;;;;;;5039761;28;19995;-71
2023/03/16 09:58:11;;;;;;;;;;;;;;;;;;5046726;28;20291;-70
2023/03/16 10:00:36;;;;;;;;;;;;;;;;;;5059733;28;19924;-71
2023/03/16 10:03:02;;;;;;;;;;;;;;;;;;5064189;28;19925;-70
2023/03/16 10:05:27;;;;;;;;;;;;;;;;;;5054768;28;19912;-71
2023/03/16 10:07:52;;;;;;;;;;;;;;;;;;5048291;28;20315;-71
2023/03/16 10:10:18;;;;;;;;;;;;;;;;;;5043225;28;19956;-70
2023/03/16 10:12:43;;;;;;;;;;;;;;;;;;5055254;28;19920;-71
2023/03/16 10:15:08;;;;;;;;;;;;;;;;;;5061672;28;20372;-71
2023/03/16 10:17:33;;;;;;;;;;;;;;;;;;5053806;28;19924;-70
2023/03/16 10:19:58;;;;;;;;;;;;;;;;;;5041813;28;20015;-70
2023/03/16 10:22:26;;;;;;;;;;;;;;;;;;5063316;28;20367;-70
2023/03/16 10:24:51;;;;;;;;;;;;;;;;;;5059788;28;19952;-70
2023/03/16 10:27:17;;;;;;;;;;;;;;;;;;5061569;28;20042;-71
2023/03/16 10:29:42;;;;;;;;;;;;;;;;;;5056790;28;20449;-70
2023/03/16 10:32:07;;;;;;;;;;;;;;;;;;5059985;28;19917;-70
2023/03/16 10:34:34;;;;;;;;;;;;;;;;;;5060241;28;19927;-71
2023/03/16 10:37:01;;;;;;;;;;;;;;;;;;5040669;28;19921;-71
2023/03/16 10:39:26;;;;;;;;;;;;;;;;;;5047229;28;19942;-71
2023/03/16 10:41:52;;;;;;;;;;;;;;;;;;5054934;28;20287;-71
2023/03/16 10:44:17;;;;;;;;;;;;;;;;;;5065586;28;20016;-70
2023/03/16 10:46:46;;;;;;;;;;;;;;;;;;5059042;28;20330;-71
2023/03/16 10:49:12;;;;;;;;;;;;;;;;;;5057040;28;19917;-70
2023/03/16 10:51:37;;;;;;;;;;;;;;;;;;5059208;28;20059;-71
2023/03/16 10:54:02;;;;;;;;;;;;;;;;;;5064681;28;20396;-70
2023/03/16 10:56:29;;;;;;;;;;;;;;;;;;5053193;28;19913;-71
2023/03/16 10:58:55;;;;;;;;;;;;;;;;;;5047620;28;20050;-70
2023/03/16 11:01:20;;;;;;;;;;;;;;;;;;5054426;28;19921;-70
2023/03/16 11:03:45;;;;;;;;;;;;;;;;;;5056714;28;20332;-70
2023/03/16 11:06:11;;;;;;;;;;;;;;;;;;5040101;28;20311;-70
2023/03/16 11:08:36;;;;;;;;;;;;;;;;;;5054530;28;19928;-70
2023/03/16 11:11:01;;;;;;;;;;;;;;;;;;5044752;28;19963;-70
2023/03/16 11:13:26;;;;;;;;;;;;;;;;;;5056429;28;19913;-70
2023/03/16 11:15:51;;;;;;;;;;;;;;;;;;5057804;28;19920;-70
2023/03/16 11:18:16;;;;;;;;;;;;;;;;;;5057911;28;19920;-70
2023/03/16 11:20:42;;;;;;;;;;;;;;;;;;5056431;28;20041;-70
2023/03/16 11:23:08;;;;;;;;;;;;;;;;;;5059032;28;19963;-70
2023/03/16 11:25:34;;;;;;;;;;;;;;;;;;5059774;28;19918;-70
2023/03/16 11:27:59;;;;;;;;;;;;;;;;;;5060790;28;19917;-69
2023/03/16 11:30:24;;;;;;;;;;;;;;;;;;5057412;28;20417;-71
2023/03/16 11:32:49;;;;;;;;;;;;;;;;;;5056473;28;20312;-70
2023/03/16 11:35:15;;;;;;;;;;;;;;;;;;5053660;28;19967;-70
2023/03/16 11:37:41;;;;;;;;;;;;;;;;;;5062469;28;20014;-70
2023/03/16 11:40:11;;;;;;;;;;;;;;;;;;5059009;28;19925;-70
2023/03/16 11:42:36;;;;;;;;;;;;;;;;;;5058171;28;20276;-70
2023/03/16 11:45:02;;;;;;;;;;;;;;;;;;5056586;28;20438;-70
2023/03/16 11:47:28;;;;;;;;;;;;;;;;;;5055414;28;19912;-70
2023/03/16 11:49:53;;;;;;;;;;;;;;;;;;5041022;28;20046;-70
2023/03/16 11:52:18;;;;;;;;;;;;;;;;;;5054221;28;20004;-70
2023/03/16 11:54:43;;;;;;;;;;;;;;;;;;5052759;28;19921;-70
2023/03/16 11:57:08;;;;;;;;;;;;;;;;;;5054914;28;20043;-69
2023/03/16 11:59:35;;;;;;;;;;;;;;;;;;5050793;28;20231;-70
2023/03/16 12:02:01;;;;;;;;;;;;;;;;;;5052249;28;20410;-70
2023/03/16 12:04:26;;;;;;;;;;;;;;;;;;5055697;28;19921;-70
2023/03/16 12:06:52;;;;;;;;;;;;;;;;;;5059238;28;20284;-70
2023/03/16 12:09:17;;;;;;;;;;;;;;;;;;5055112;28;19920;-70
2023/03/16 12:11:42;;;;;;;;;;;;;;;;;;5045575;28;20376;-69
2023/03/16 12:14:07;;;;;;;;;;;;;;;;;;5044645;28;19963;-70
2023/03/16 12:16:33;;;;;;;;;;;;;;;;;;5060103;28;19956;-71
2023/03/16 12:19:00;;;;;;;;;;;;;;;;;;5058988;28;20468;-70
2023/03/16 12:21:25;;;;;;;;;;;;;;;;;;5055661;28;19912;-70
2023/03/16 12:23:51;;;;;;;;;;;;;;;;;;5046277;28;20331;-70
2023/03/16 12:26:16;;;;;;;;;;;;;;;;;;5040624;28;19953;-70
2023/03/16 12:28:41;;;;;;;;;;;;;;;;;;5055853;28;19952;-70
2023/03/16 12:31:08;;;;;;;;;;;;;;;;;;5053004;28;19920;-70
2023/03/16 12:33:33;;;;;;;;;;;;;;;;;;5036867;28;19957;-69
2023/03/16 12:35:58;;;;;;;;;;;;;;;;;;5059682;28;20314;-70
2023/03/16 12:38:23;;;;;;;;;;;;;;;;;;5057466;28;19913;-69
2023/03/16 12:40:48;;;;;;;;;;;;;;;;;;5056250;28;19916;-70
2023/03/16 12:43:14;;;;;;;;;;;;;;;;;;5050715;28;19924;-70
2023/03/16 12:45:40;;;;;;;;;;;;;;;;;;5059814;28;19935;-70
2023/03/16 12:48:05;;;;;;;;;;;;;;;;;;5043550;28;19917;-70
2023/03/16 12:50:31;;;;;;;;;;;;;;;;;;5056845;28;19920;-70
2023/03/16 12:52:57;;;;;;;;;;;;;;;;;;5055841;28;19923;-70
2023/03/16 12:55:22;;;;;;;;;;;;;;;;;;5060726;28;19920;-70
2023/03/16 12:57:47;;;;;;;;;;;;;;;;;;5056274;28;20302;-70
2023/03/16 13:00:12;;;;;;;;;;;;;;;;;;5058717;28;20004;-70
2023/03/16 13:02:37;;;;;;;;;;;;;;;;;;5055850;28;20390;-71
2023/03/16 13:05:03;;;;;;;;;;;;;;;;;;5055947;28;19919;-70
2023/03/16 13:07:29;;;;;;;;;;;;;;;;;;5056424;28;19935;-70
2023/03/16 13:09:56;;;;;;;;;;;;;;;;;;5059140;28;19920;-70
2023/03/16 13:12:21;;;;;;;;;;;;;;;;;;5038411;28;19926;-70
2023/03/16 13:14:48;;;;;;;;;;;;;;;;;;5042412;28;19917;-70
2023/03/16 13:17:14;;;;;;;;;;;;;;;;;;5058081;28;19919;-69
2023/03/16 13:19:39;;;;;;;;;;;;;;;;;;5040802;28;20299;-70
2023/03/16 13:22:04;;;;;;;;;;;;;;;;;;5054079;28;19913;-70
2023/03/16 13:24:29;;;;;;;;;;;;;;;;;;5059041;28;20003;-70
2023/03/16 13:26:55;;;;;;;;;;;;;;;;;;5059429;28;19935;-69
2023/03/16 13:29:20;;;;;;;;;;;;;;;;;;5058318;28;20357;-70
2023/03/16 13:31:45;;;;;;;;;;;;;;;;;;5054376;28;19967;-70
2023/03/16 13:34:10;;;;;;;;;;;;;;;;;;5056536;28;19912;-70
2023/03/16 13:36:36;;;;;;;;;;;;;;;;;;5055465;28;20331;-70
2023/03/16 13:39:03;;;;;;;;;;;;;;;;;;5055347;28;19924;-70
2023/03/16 13:41:28;;;;;;;;;;;;;;;;;;5055330;28;19913;-70
2023/03/16 13:43:53;;;;;;;;;;;;;;;;;;5036651;28;20383;-69
2023/03/16 13:46:18;;;;;;;;;;;;;;;;;;5055835;28;20005;-69
2023/03/16 13:48:43;;;;;;;;;;;;;;;;;;5059145;28;19913;-69
2023/03/16 13:51:09;;;;;;;;;;;;;;;;;;5058434;28;19920;-70
2023/03/16 13:53:34;;;;;;;;;;;;;;;;;;5060627;28;20445;-70
2023/03/16 13:56:00;;;;;;;;;;;;;;;;;;5060245;28;19913;-70
2023/03/16 13:58:26;;;;;;;;;;;;;;;;;;5058466;28;20023;-69
2023/03/16 14:00:51;;;;;;;;;;;;;;;;;;5061730;28;19996;-70
2023/03/16 14:03:16;;;;;;;;;;;;;;;;;;5060095;28;19920;-69
2023/03/16 14:05:41;;;;;;;;;;;;;;;;;;5062026;28;19909;-70
2023/03/16 14:08:07;;;;;;;;;;;;;;;;;;5060884;28;19909;-70
2023/03/16 14:10:32;;;;;;;;;;;;;;;;;;5061802;28;19955;-69
2023/03/16 14:12:57;;;;;;;;;;;;;;;;;;5047379;28;19958;-70
2023/03/16 14:15:22;;;;;;;;;;;;;;;;;;5062183;28;20288;-69
2023/03/16 14:17:47;;;;;;;;;;;;;;;;;;5064474;28;20308;-69
2023/03/16 14:20:13;;;;;;;;;;;;;;;;;;5062725;28;19916;-69
2023/03/16 14:22:38;;;;;;;;;;;;;;;;;;5063262;28;19908;-69
2023/03/16 14:25:04;;;;;;;;;;;;;;;;;;5060451;28;20021;-70
2023/03/16 14:27:29;;;;;;;;;;;;;;;;;;5062209;28;19999;-69
2023/03/16 14:29:55;;;;;;;;;;;;;;;;;;5064720;28;19916;-69
2023/03/16 14:32:21;;;;;;;;;;;;;;;;;;5061207;28;19919;-69
2023/03/16 14:34:46;;;;;;;;;;;;;;;;;;5064970;28;19916;-69
2023/03/16 14:37:11;;;;;;;;;;;;;;;;;;5043602;28;19916;-70
2023/03/16 14:39:37;;;;;;;;;;;;;;;;;;5045893;28;20017;-70
2023/03/16 14:42:02;;;;;;;;;;;;;;;;;;5043737;28;19908;-69
2023/03/16 14:44:27;;;;;;;;;;;;;;;;;;5061106;28;19916;-69
2023/03/16 14:46:52;;;;;;;;;;;;;;;;;;5058903;28;19913;-70
2023/03/16 14:49:17;;;;;;;;;;;;;;;;;;5063428;28;19920;-70
2023/03/16 14:51:43;;;;;;;;;;;;;;;;;;5043090;28;19913;-70
2023/03/16 14:54:08;;;;;;;;;;;;;;;;;;5061026;28;19971;-70
2023/03/16 14:56:33;;;;;;;;;;;;;;;;;;5063848;28;19978;-69
2023/03/16 14:58:59;;;;;;;;;;;;;;;;;;5060493;28;19919;-70
2023/03/16 15:01:25;;;;;;;;;;;;;;;;;;5060779;28;19909;-70
2023/03/16 15:03:51;;;;;;;;;;;;;;;;;;5063285;28;19924;-70
2023/03/16 15:06:16;;;;;;;;;;;;;;;;;;5061888;28;19916;-71
2023/03/16 15:08:43;;;;;;;;;;;;;;;;;;5062880;28;20301;-70
2023/03/16 15:11:08;;;;;;;;;;;;;;;;;;5059501;28;20007;-69
2023/03/16 15:13:35;;;;;;;;;;;;;;;;;;5053680;28;20004;-69
2023/03/16 15:16:03;;;;;;;;;;;;;;;;;;5053800;28;19951;-69
2023/03/16 15:18:28;;;;;;;;;;;;;;;;;;5063678;28;19912;-69
2023/03/16 15:20:54;;;;;;;;;;;;;;;;;;5062594;28;19908;-69
2023/03/16 15:23:19;;;;;;;;;;;;;;;;;;5060267;28;19931;-69
2023/03/16 15:25:44;;;;;;;;;;;;;;;;;;5064455;28;19915;-69
2023/03/16 15:28:10;;;;;;;;;;;;;;;;;;5059148;28;20002;-69
2023/03/16 15:30:35;;;;;;;;;;;;;;;;;;5060255;28;20392;-69
2023/03/16 15:33:00;;;;;;;;;;;;;;;;;;5058298;28;20011;-70
2023/03/16 15:35:25;;;;;;;;;;;;;;;;;;5061058;28;20253;-69
2023/03/16 15:37:51;;;;;;;;;;;;;;;;;;5052546;28;19966;-69
2023/03/16 15:40:16;;;;;;;;;;;;;;;;;;5048182;28;20322;-68
2023/03/16 15:42:41;;;;;;;;;;;;;;;;;;5049906;28;19912;-70
2023/03/16 15:45:06;;;;;;;;;;;;;;;;;;5037470;28;19966;-70
2023/03/16 15:47:32;;;;;;;;;;;;;;;;;;5055694;28;19924;-70
2023/03/16 15:49:57;;;;;;;;;;;;;;;;;;5062400;28;19912;-68
2023/03/16 15:52:22;;;;;;;;;;;;;;;;;;5059744;28;19915;-70
2023/03/16 15:54:47;;;;;;;;;;;;;;;;;;5057644;28;20000;-69
2023/03/16 15:57:12;;;;;;;;;;;;;;;;;;5042684;28;19967;-70
2023/03/16 15:59:37;;;;;;;;;;;;;;;;;;5042599;28;19916;-69
2023/03/16 16:02:03;;;;;;;;;;;;;;;;;;5062084;28;19924;-69
2023/03/16 16:04:28;;;;;;;;;;;;;;;;;;5060007;28;19909;-69
2023/03/16 16:06:54;;;;;;;;;;;;;;;;;;5058961;28;19912;-69
2023/03/16 16:09:19;;;;;;;;;;;;;;;;;;5061865;28;19921;-70
2023/03/16 16:11:46;;;;;;;;;;;;;;;;;;5059374;28;20003;-68
2023/03/16 16:14:11;;;;;;;;;;;;;;;;;;5056579;28;19952;-70
2023/03/16 16:16:37;;;;;;;;;;;;;;;;;;5056378;28;19952;-70
2023/03/16 16:19:08;;;;;;;;;;;;;;;;;;5061222;28;19924;-69
2023/03/16 16:21:33;;;;;;;;;;;;;;;;;;5057699;28;19922;-69
2023/03/16 16:24:01;;;;;;;;;;;;;;;;;;5058117;28;19913;-69
2023/03/16 16:26:26;;;;;;;;;;;;;;;;;;5058546;28;20447;-69
2023/03/16 16:28:52;;;;;;;;;;;;;;;;;;5059075;28;19999;-69
2023/03/16 16:31:17;;;;;;;;;;;;;;;;;;5062301;28;19908;-68
2023/03/16 16:33:42;;;;;;;;;;;;;;;;;;5062056;28;19908;-68